Time;durP1;ratioP1;P1;durP2;ratioP2;P2;SDS_P1;SDS_P2;PMS_P1;PMS_P2;Temp;Humidity;BMP_temperature;BMP_pressure;BME280_temperature;BME280_humidity;BME280_pressure;Samples;Min_cycle;Max_cycle;Signal;HPM_P1;HPM_P2
2023/04/14 00:02:01;;;;;;;2.58;1.83;;;17.70;64.10;;;;;;5053883;28;20330;-69
2023/04/14 00:04:51;;;;;;;1.75;1.58;;;17.80;64.20;;;;;;5054089;28;20229;-68
2023/04/14 00:07:40;;;;;;;3.38;1.85;;;17.70;64.10;;;;;;5053537;28;20295;-68
2023/04/14 00:10:28;;;;;;;2.00;1.80;;;17.70;64.10;;;;;;5054043;28;20280;-68
2023/04/14 00:13:16;;;;;;;2.30;1.95;;;17.60;71.60;;;;;;5053662;28;20247;-68
2023/04/14 00:16:05;;;;;;;4.05;2.20;;;17.80;64.10;;;;;;5053941;28;20205;-68
2023/04/14 00:18:54;;;;;;;2.10;1.90;;;17.80;64.10;;;;;;5054353;28;20233;-68
2023/04/14 00:21:42;;;;;;;2.20;2.00;;;17.80;64.10;;;;;;5053181;28;20347;-68
2023/04/14 00:24:30;;;;;;;1.92;1.83;;;17.70;63.40;;;;;;5053360;28;20270;-68
2023/04/14 00:27:18;;;;;;;2.55;1.90;;;17.70;64.00;;;;;;5053450;28;20206;-68
2023/04/14 00:30:07;;;;;;;3.10;1.90;;;17.80;64.00;;;;;;5053758;28;20244;-68
2023/04/14 00:32:55;;;;;;;2.03;1.88;;;17.70;64.00;;;;;;5052486;28;20281;-68
2023/04/14 00:35:45;;;;;;;2.17;1.75;;;17.90;64.10;;;;;;5053266;28;20204;-68
2023/04/14 00:38:33;;;;;;;1.98;1.60;;;17.80;64.00;;;;;;5053046;28;20276;-68
2023/04/14 00:41:21;;;;;;;1.65;1.55;;;17.70;64.00;;;;;;5052527;28;20202;-68
2023/04/14 00:44:09;;;;;;;1.70;1.60;;;17.70;64.00;;;;;;5053425;28;20358;-68
2023/04/14 00:46:58;;;;;;;1.83;1.70;;;17.80;64.10;;;;;;5069374;28;20208;-68
2023/04/14 00:49:46;;;;;;;2.00;1.83;;;17.70;64.00;;;;;;5071572;28;20283;-68
2023/04/14 00:52:37;;;;;;;2.63;1.90;;;17.70;64.10;;;;;;5071883;28;20192;-68
2023/04/14 00:55:25;;;;;;;1.50;1.40;;;17.70;64.10;;;;;;5072452;28;20335;-68
2023/04/14 00:58:15;;;;;;;2.75;1.90;;;17.70;64.10;;;;;;5073051;28;20196;-68
2023/04/14 01:01:03;;;;;;;1.80;1.70;;;17.70;64.10;;;;;;5084201;28;20264;-68
2023/04/14 01:03:52;;;;;;;2.55;1.73;;;17.60;64.10;;;;;;5083326;28;20229;-69
2023/04/14 01:06:40;;;;;;;2.72;1.40;;;17.70;64.20;;;;;;5074242;28;20215;-68
2023/04/14 01:09:30;;;;;;;1.92;1.63;;;17.70;64.20;;;;;;5072110;28;20283;-68
2023/04/14 01:12:31;;;;;;;2.38;1.70;;;17.70;64.10;;;;;;5072423;28;20201;-68
2023/04/14 01:15:28;;;;;;;1.73;1.60;;;17.70;64.10;;;;;;5071754;28;20711;-68
2023/04/14 01:18:21;;;;;;;1.95;1.85;;;17.70;64.00;;;;;;5071766;28;20220;-69
2023/04/14 01:21:13;;;;;;;2.38;1.63;;;17.70;64.10;;;;;;5071311;28;20329;-68
2023/04/14 01:24:25;;;;;;;2.60;1.50;;;17.70;64.10;;;;;;5072585;28;20606;-68
2023/04/14 01:27:35;;;;;;;2.42;1.83;;;17.70;64.00;;;;;;5071068;28;20233;-68
2023/04/14 01:30:35;;;;;;;5.68;2.17;;;17.70;64.00;;;;;;5071218;28;20707;-68
2023/04/14 01:33:26;;;;;;;1.85;1.63;;;17.70;63.90;;;;;;5070833;28;20262;-68
2023/04/14 01:36:22;;;;;;;1.67;1.52;;;17.80;63.90;;;;;;5072342;28;20278;-68
2023/04/14 01:39:13;;;;;;;2.67;2.10;;;17.80;63.80;;;;;;5072819;28;20462;-68
2023/04/14 01:42:05;;;;;;;2.65;2.00;;;17.80;63.80;;;;;;5071236;28;20280;-68
2023/04/14 01:45:07;;;;;;;2.05;1.52;;;17.80;63.80;;;;;;5054544;28;20721;-68
2023/04/14 01:47:55;;;;;;;2.08;1.88;;;17.80;63.80;;;;;;5062617;28;20619;-68
2023/04/14 01:50:47;;;;;;;3.95;2.53;;;17.80;63.70;;;;;;5072601;28;20197;-69
2023/04/14 01:53:38;;;;;;;2.00;1.90;;;17.80;63.80;;;;;;5070571;28;20262;-68
2023/04/14 01:56:27;;;;;;;2.90;1.90;;;17.80;63.70;;;;;;5072072;28;20269;-68
2023/04/14 01:59:17;;;;;;;2.22;2.03;;;17.80;63.80;;;;;;5072519;28;20669;-68
2023/04/14 02:02:07;;;;;;;2.75;1.58;;;17.80;63.80;;;;;;5071224;28;20277;-68
2023/04/14 02:04:57;;;;;;;2.25;1.98;;;17.80;63.80;;;;;;5071284;28;20682;-68
2023/04/14 02:07:48;;;;;;;2.30;2.10;;;17.80;63.80;;;;;;5071475;28;20211;-68
2023/04/14 02:10:40;;;;;;;2.00;1.80;;;17.80;63.80;;;;;;5070694;28;20275;-68
2023/04/14 02:13:30;;;;;;;1.70;1.60;;;17.70;63.80;;;;;;5071412;28;20723;-68
2023/04/14 02:16:19;;;;;;;2.67;1.90;;;17.70;63.90;;;;;;5071756;28;20620;-68
2023/04/14 02:19:07;;;;;;;1.92;1.80;;;17.70;63.90;;;;;;5071495;28;20201;-68
2023/04/14 02:21:56;;;;;;;2.17;1.75;;;17.70;63.90;;;;;;5071316;28;20274;-68
2023/04/14 02:24:46;;;;;;;2.03;1.58;;;17.70;64.00;;;;;;5070110;28;20274;-68
2023/04/14 02:27:38;;;;;;;2.00;1.80;;;17.70;64.00;;;;;;5072215;28;20620;-68
2023/04/14 02:30:29;;;;;;;1.98;1.88;;;17.70;64.10;;;;;;5071774;28;20241;-68
2023/04/14 02:33:21;;;;;;;1.80;1.67;;;17.80;70.80;;;;;;5071308;28;20196;-68
2023/04/14 02:36:14;;;;;;;2.83;1.70;;;17.60;64.00;;;;;;5072046;28;20249;-68
2023/04/14 02:39:09;;;;;;;1.95;1.73;;;17.70;64.10;;;;;;5071119;28;20213;-68
2023/04/14 02:42:04;;;;;;;1.98;1.75;;;17.70;64.00;;;;;;5071777;28;20231;-67
2023/04/14 02:45:00;;;;;;;2.42;1.70;;;17.70;64.00;;;;;;5071469;28;20212;-68
2023/04/14 02:47:54;;;;;;;1.80;1.67;;;17.70;63.90;;;;;;5051234;28;20209;-68
2023/04/14 02:50:45;;;;;;;1.95;1.75;;;17.70;63.80;;;;;;5051256;28;20306;-67
2023/04/14 02:53:34;;;;;;;2.28;1.70;;;17.70;63.90;;;;;;5051491;28;20646;-68
2023/04/14 02:56:22;;;;;;;2.78;1.92;;;17.70;63.90;;;;;;5051503;28;20224;-67
2023/04/14 02:59:12;;;;;;;3.03;1.90;;;17.80;64.00;;;;;;5050550;28;20206;-68
2023/04/14 03:02:03;;;;;;;6.50;1.70;;;17.80;63.80;;;;;;5050316;28;20208;-68
2023/04/14 03:04:53;;;;;;;2.20;1.65;;;17.70;63.80;;;;;;5051253;28;20229;-67
2023/04/14 03:07:43;;;;;;;1.95;1.85;;;17.80;63.80;;;;;;5055357;28;20228;-68
2023/04/14 03:10:32;;;;;;;2.42;1.70;;;17.80;63.80;;;;;;5055673;28;20717;-68
2023/04/14 03:13:21;;;;;;;3.05;2.10;;;17.50;70.60;;;;;;5054723;28;20201;-68
2023/04/14 03:16:13;;;;;;;3.00;1.70;;;17.80;63.80;;;;;;5054735;28;20680;-67
2023/04/14 03:19:03;;;;;;;1.70;1.60;;;17.70;63.70;;;;;;5054569;28;20204;-68
2023/04/14 03:21:54;;;;;;;1.80;1.50;;;17.80;63.80;;;;;;5054462;28;20280;-67
2023/04/14 03:24:44;;;;;;;2.47;1.77;;;17.70;63.20;;;;;;5054467;28;20733;-68
2023/04/14 03:27:33;;;;;;;2.50;2.30;;;17.60;63.80;;;;;;5055032;28;20343;-67
2023/04/14 03:30:24;;;;;;;2.20;2.00;;;17.60;63.80;;;;;;5054107;28;20556;-68
2023/04/14 03:33:18;;;;;;;2.13;1.98;;;17.50;71.30;;;;;;5054071;28;20303;-68
2023/04/14 03:36:08;;;;;;;1.80;1.70;;;17.60;64.60;;;;;;5054057;28;20208;-68
2023/04/14 03:39:00;;;;;;;2.20;2.00;;;17.60;63.90;;;;;;5055474;28;20251;-68
2023/04/14 03:41:51;;;;;;;2.80;2.08;;;17.60;63.90;;;;;;5053239;28;20197;-68
2023/04/14 03:44:44;;;;;;;1.50;1.40;;;17.70;64.00;;;;;;5054339;28;20235;-69
2023/04/14 03:47:32;;;;;;;1.73;1.63;;;17.60;63.90;;;;;;5054189;28;20293;-68
2023/04/14 03:50:23;;;;;;;2.03;1.75;;;17.60;63.90;;;;;;5054116;28;20201;-68
2023/04/14 03:53:13;;;;;;;1.98;1.70;;;17.80;64.90;;;;;;5053581;28;20244;-68
2023/04/14 03:56:02;;;;;;;1.55;1.45;;;17.50;63.90;;;;;;5054004;28;20201;-68
2023/04/14 03:58:54;;;;;;;2.33;1.85;;;17.60;64.00;;;;;;5054000;28;20697;-68
2023/04/14 04:01:43;;;;;;;1.95;1.80;;;17.60;64.00;;;;;;5052838;28;20197;-68
2023/04/14 04:04:33;;;;;;;1.85;1.65;;;17.60;64.00;;;;;;5053237;28;20225;-68
2023/04/14 04:07:25;;;;;;;3.40;2.63;;;17.60;63.90;;;;;;5053975;28;20257;-67
2023/04/14 04:10:15;;;;;;;3.08;2.17;;;17.70;63.90;;;;;;5053468;28;20331;-68
2023/04/14 04:13:08;;;;;;;2.28;2.08;;;17.70;63.30;;;;;;5052936;28;20209;-68
2023/04/14 04:15:56;;;;;;;1.95;1.73;;;17.70;63.30;;;;;;5053490;28;20202;-68
2023/04/14 04:18:47;;;;;;;2.05;1.67;;;17.70;63.90;;;;;;5053714;28;20241;-68
2023/04/14 04:21:40;;;;;;;2.10;2.00;;;17.70;63.30;;;;;;5052495;28;20233;-67
2023/04/14 04:24:36;;;;;;;2.20;2.00;;;17.70;63.90;;;;;;5053538;28;20420;-68
2023/04/14 04:27:24;;;;;;;1.73;1.63;;;17.70;63.90;;;;;;5053159;28;20303;-68
2023/04/14 04:30:18;;;;;;;2.10;1.58;;;17.60;63.90;;;;;;5053082;28;20208;-68
2023/04/14 04:33:06;;;;;;;4.38;2.05;;;17.70;64.60;;;;;;5053324;28;20285;-68
2023/04/14 04:35:56;;;;;;;2.25;2.05;;;17.60;63.90;;;;;;5053635;28;20275;-68
2023/04/14 04:38:45;;;;;;;2.53;1.80;;;17.60;63.80;;;;;;5053725;28;20682;-68
2023/04/14 04:41:34;;;;;;;2.25;1.90;;;17.60;63.90;;;;;;5053194;28;20201;-67
2023/04/14 04:44:22;;;;;;;3.55;2.33;;;17.60;63.90;;;;;;5053926;28;20217;-68
2023/04/14 04:47:12;;;;;;;2.90;1.83;;;17.60;63.30;;;;;;5071571;28;20326;-67
2023/04/14 04:50:00;;;;;;;2.35;1.90;;;;;;;;;;5072479;28;20283;-67
2023/04/14 04:52:49;;;;;;;2.60;1.90;;;17.60;63.30;;;;;;5071879;28;20624;-67
2023/04/14 04:55:37;;;;;;;2.85;2.20;;;17.60;63.90;;;;;;5072573;28;20280;-68
2023/04/14 04:58:26;;;;;;;2.40;2.15;;;17.70;63.90;;;;;;5072374;28;20700;-68
2023/04/14 05:01:15;;;;;;;1.50;1.40;;;17.70;63.90;;;;;;5072682;28;20273;-67
2023/04/14 05:04:03;;;;;;;2.45;2.25;;;17.70;63.90;;;;;;5072011;28;20235;-67
2023/04/14 05:06:51;;;;;;;1.92;1.73;;;17.70;63.90;;;;;;5072346;28;20197;-67
2023/04/14 05:09:39;;;;;;;2.25;2.05;;;17.70;63.80;;;;;;5072538;28;20205;-67
2023/04/14 05:12:27;;;;;;;3.25;1.95;;;17.70;63.80;;;;;;5071801;28;20224;-67
2023/04/14 05:15:17;;;;;;;1.63;1.52;;;17.70;63.70;;;;;;5071166;28;20621;-67
2023/04/14 05:18:05;;;;;;;1.67;1.58;;;17.70;63.70;;;;;;5071690;28;20200;-67
2023/04/14 05:20:53;;;;;;;3.08;1.65;;;17.80;63.70;;;;;;5071949;28;20567;-67
2023/04/14 05:23:43;;;;;;;1.75;1.65;;;17.70;63.60;;;;;;5071124;28;20256;-67
2023/04/14 05:26:32;;;;;;;2.00;1.90;;;17.70;63.60;;;;;;5071979;28;20333;-67
2023/04/14 05:29:40;;;;;;;3.17;2.10;;;17.70;63.60;;;;;;5071206;28;20697;-67
2023/04/14 05:32:29;;;;;;;2.13;2.03;;;17.80;63.60;;;;;;5073207;28;20754;-67
2023/04/14 05:35:17;;;;;;;1.80;1.70;;;17.80;63.50;;;;;;5071678;28;20248;-67
2023/04/14 05:38:05;;;;;;;2.08;1.98;;;17.80;63.50;;;;;;5072258;28;20330;-67
2023/04/14 05:40:53;;;;;;;1.95;1.85;;;17.80;63.50;;;;;;5072327;28;20283;-67
2023/04/14 05:43:41;;;;;;;2.13;1.92;;;17.80;63.00;;;;;;5070504;28;20684;-67
2023/04/14 05:46:29;;;;;;;5.55;2.30;;;17.80;63.60;;;;;;5058842;28;20255;-67
2023/04/14 05:49:19;;;;;;;1.80;1.70;;;17.80;63.60;;;;;;5051987;28;20201;-67
2023/04/14 05:52:07;;;;;;;2.60;2.15;;;17.80;63.70;;;;;;5051169;28;20299;-67
2023/04/14 05:54:55;;;;;;;2.25;1.67;;;17.80;64.40;;;;;;5051808;28;20224;-67
2023/04/14 05:57:43;;;;;;;1.83;1.73;;;17.70;63.60;;;;;;5052256;28;20295;-67
2023/04/14 06:00:31;;;;;;;2.13;1.95;;;17.80;63.20;;;;;;5052089;28;20335;-67
2023/04/14 06:03:19;;;;;;;1.80;1.50;;;17.60;70.40;;;;;;5051158;28;20243;-68
2023/04/14 06:06:09;;;;;;;2.67;2.10;;;17.80;63.90;;;;;;5051495;28;20271;-67
2023/04/14 06:08:57;;;;;;;2.20;2.00;;;17.70;63.80;;;;;;5051405;28;20201;-67
2023/04/14 06:11:45;;;;;;;3.00;1.95;;;17.70;63.90;;;;;;5051182;28;20205;-67
2023/04/14 06:14:33;;;;;;;2.53;2.33;;;17.70;63.90;;;;;;5052189;28;20635;-67
2023/04/14 06:17:21;;;;;;;2.72;2.00;;;17.70;63.90;;;;;;5051154;28;20674;-67
2023/04/14 06:20:10;;;;;;;2.85;1.88;;;17.70;63.90;;;;;;5052090;28;20200;-67
2023/04/14 06:23:00;;;;;;;2.10;1.83;;;17.70;64.00;;;;;;5051246;28;20443;-67
2023/04/14 06:25:48;;;;;;;2.58;1.85;;;17.70;64.00;;;;;;5051461;28;20322;-67
2023/04/14 06:28:36;;;;;;;1.73;1.63;;;17.70;64.00;;;;;;5052182;28;20201;-67
2023/04/14 06:31:24;;;;;;;2.20;2.00;;;17.70;64.00;;;;;;5052186;28;20542;-67
2023/04/14 06:34:12;;;;;;;1.85;1.75;;;17.70;64.00;;;;;;5053257;28;20244;-67
2023/04/14 06:37:00;;;;;;;3.00;1.70;;;17.70;63.50;;;;;;5053619;28;20645;-67
2023/04/14 06:39:50;;;;;;;1.85;1.73;;;17.70;64.10;;;;;;5052836;28;20267;-67
2023/04/14 06:42:38;;;;;;;2.53;2.10;;;17.80;64.10;;;;;;5056665;28;20280;-67
2023/04/14 06:45:26;;;;;;;2.03;1.80;;;17.80;64.20;;;;;;5059708;28;20303;-68
2023/04/14 06:48:14;;;;;;;2.20;1.85;;;17.80;63.50;;;;;;5075897;28;20216;-67
2023/04/14 06:51:02;;;;;;;1.58;1.48;;;17.80;64.20;;;;;;5075775;28;20206;-67
2023/04/14 06:53:50;;;;;;;3.08;1.80;;;17.80;64.10;;;;;;5075964;28;20354;-67
2023/04/14 06:56:39;;;;;;;2.00;1.83;;;17.80;64.10;;;;;;5076529;28;20573;-67
2023/04/14 06:59:28;;;;;;;2.35;2.15;;;17.80;64.20;;;;;;5075636;28;20282;-67
2023/04/14 07:02:16;;;;;;;2.45;2.25;;;17.80;64.30;;;;;;5076386;28;20208;-67
2023/04/14 07:05:06;;;;;;;2.55;1.83;;;17.80;64.20;;;;;;5075142;28;20224;-67
2023/04/14 07:07:54;;;;;;;1.67;1.58;;;17.80;64.30;;;;;;5075639;28;20704;-67
2023/04/14 07:10:42;;;;;;;2.50;1.80;;;17.80;64.20;;;;;;5076473;28;20619;-67
2023/04/14 07:13:32;;;;;;;2.40;1.95;;;17.80;64.30;;;;;;5075831;28;20304;-67
2023/04/14 07:16:20;;;;;;;1.85;1.75;;;17.90;64.50;;;;;;5075927;28;20200;-67
2023/04/14 07:19:08;;;;;;;1.85;1.60;;;17.70;64.40;;;;;;5070558;28;20631;-67
2023/04/14 07:21:56;;;;;;;2.08;1.75;;;17.80;64.40;;;;;;5054508;28;20748;-67
2023/04/14 07:24:44;;;;;;;1.73;1.60;;;17.70;64.40;;;;;;5054262;28;20295;-67
2023/04/14 07:27:32;;;;;;;1.70;1.60;;;17.70;63.90;;;;;;5055030;28;20201;-67
2023/04/14 07:30:22;;;;;;;2.60;1.50;;;17.80;64.50;;;;;;5066687;28;20331;-67
2023/04/14 07:33:11;;;;;;;1.98;1.88;;;17.60;73.00;;;;;;5065735;28;20237;-67
2023/04/14 07:36:00;;;;;;;1.40;1.35;;;17.80;69.00;;;;;;5072980;28;20689;-67
2023/04/14 07:38:50;;;;;;;3.40;1.88;;;17.80;64.50;;;;;;5054332;28;20197;-67
2023/04/14 07:41:38;;;;;;;1.77;1.65;;;17.80;64.50;;;;;;5054180;28;20908;-67
2023/04/14 07:44:26;;;;;;;3.13;1.90;;;17.90;64.60;;;;;;5054252;28;20239;-67
2023/04/14 07:47:16;;;;;;;2.15;1.70;;;17.90;64.50;;;;;;5054602;28;20311;-67
2023/04/14 07:50:05;;;;;;;2.35;1.52;;;17.90;64.60;;;;;;5055946;28;20808;-67
2023/04/14 07:52:53;;;;;;;2.30;2.05;;;17.90;63.90;;;;;;5055399;28;20621;-67
2023/04/14 07:55:41;;;;;;;2.55;1.70;;;17.90;64.00;;;;;;5054449;28;20228;-67
2023/04/14 07:58:29;;;;;;;2.08;1.88;;;17.90;64.60;;;;;;5054164;28;20209;-67
2023/04/14 08:01:17;;;;;;;2.00;1.90;;;17.90;64.70;;;;;;5054848;28;20267;-67
2023/04/14 08:04:07;;;;;;;2.13;1.75;;;18.00;64.10;;;;;;5054155;28;20258;-67
2023/04/14 08:06:56;;;;;;;2.80;1.88;;;18.00;64.60;;;;;;5053994;28;20782;-67
2023/04/14 08:09:45;;;;;;;2.30;1.83;;;17.80;64.40;;;;;;5053794;28;20233;-67
2023/04/14 08:12:33;;;;;;;2.55;1.55;;;18.00;64.70;;;;;;5054008;28;20304;-67
2023/04/14 08:15:21;;;;;;;1.83;1.65;;;17.90;64.50;;;;;;5053855;28;20296;-67
2023/04/14 08:18:09;;;;;;;1.60;1.40;;;17.90;64.50;;;;;;5053636;28;20324;-67
2023/04/14 08:20:58;;;;;;;2.50;2.30;;;18.00;64.60;;;;;;5053621;28;20677;-67
2023/04/14 08:23:46;;;;;;;3.80;2.17;;;18.00;64.70;;;;;;5053364;28;20233;-67
2023/04/14 08:26:34;;;;;;;3.10;2.63;;;18.00;64.00;;;;;;5061969;28;20263;-68
2023/04/14 08:29:23;;;;;;;2.45;2.22;;;18.00;64.80;;;;;;5071793;28;20252;-67
2023/04/14 08:32:11;;;;;;;2.08;1.55;;;18.00;64.10;;;;;;5056579;28;20286;-67
2023/04/14 08:34:59;;;;;;;3.22;2.03;;;18.00;64.80;;;;;;5052670;28;20229;-69
2023/04/14 08:38:08;;;;;;;2.58;1.80;;;18.00;64.30;;;;;;5053518;28;20193;-69
2023/04/14 08:40:56;;;;;;;1.70;1.60;;;18.00;64.80;;;;;;5053318;28;20259;-69
2023/04/14 08:43:45;;;;;;;2.45;1.77;;;18.00;65.00;;;;;;5052531;28;20213;-69
2023/04/14 08:46:34;;;;;;;5.03;1.77;;;18.00;65.00;;;;;;5053565;28;20724;-69
2023/04/14 08:49:39;;;;;;;2.25;1.98;;;18.00;65.00;;;;;;5053221;28;20672;-69
2023/04/14 08:52:30;;;;;;;2.60;1.73;;;18.00;65.30;;;;;;5053108;28;20275;-69
2023/04/14 08:55:20;;;;;;;2.45;1.80;;;18.00;65.10;;;;;;5052370;28;20300;-69
2023/04/14 08:58:10;;;;;;;1.55;1.45;;;18.10;65.20;;;;;;5053403;28;20200;-68
2023/04/14 09:00:59;;;;;;;2.13;1.92;;;18.10;65.40;;;;;;5053173;28;20198;-69
2023/04/14 09:03:48;;;;;;;1.80;1.70;;;18.10;65.40;;;;;;5052254;28;20221;-65
2023/04/14 09:06:36;;;;;;;1.67;1.58;;;18.10;64.90;;;;;;5053227;28;20224;-67
2023/04/14 09:09:25;;;;;;;1.80;1.67;;;18.20;64.80;;;;;;5071412;28;20200;-68
2023/04/14 09:12:16;;;;;;;1.90;1.77;;;18.20;64.70;;;;;;5072576;28;20204;-68
2023/04/14 09:15:05;;;;;;;2.13;1.92;;;18.30;64.80;;;;;;5072597;28;20634;-69
2023/04/14 09:17:53;;;;;;;2.10;2.00;;;18.30;64.50;;;;;;5072907;28;20219;-68
2023/04/14 09:20:42;;;;;;;2.33;2.10;;;18.30;64.50;;;;;;5072923;28;20215;-68
2023/04/14 09:23:30;;;;;;;1.65;1.55;;;18.30;64.50;;;;;;5063954;28;20295;-66
2023/04/14 09:26:18;;;;;;;1.70;1.60;;;18.30;64.50;;;;;;5062464;28;20296;-67
2023/04/14 09:29:08;;;;;;;4.05;1.63;;;18.30;64.60;;;;;;5065164;28;20216;-68
2023/04/14 09:31:56;;;;;;;1.60;1.50;;;18.30;64.60;;;;;;5071101;28;20244;-66
2023/04/14 09:34:51;;;;;;;1.60;1.50;;;18.30;64.10;;;;;;5063551;28;20260;-67
2023/04/14 09:37:43;;;;;;;5.45;1.63;;;18.30;64.70;;;;;;5063259;28;20188;-67
2023/04/14 09:40:31;;;;;;;3.08;1.80;;;18.40;65.00;;;;;;5052181;28;20712;-67
2023/04/14 09:43:24;;;;;;;1.98;1.67;;;18.60;72.50;;;;;;5061794;28;20691;-67
2023/04/14 09:46:14;;;;;;;2.72;1.60;;;18.30;64.80;;;;;;5064948;28;20243;-67
2023/04/14 09:49:05;;;;;;;4.72;1.50;;;18.40;65.00;;;;;;5069061;28;20212;-67
2023/04/14 09:51:54;;;;;;;1.75;1.58;;;18.30;64.90;;;;;;5062647;28;20225;-68
2023/04/14 09:54:42;;;;;;;3.30;1.70;;;18.30;65.10;;;;;;5068547;28;20256;-68
2023/04/14 09:57:30;;;;;;;1.38;1.27;;;18.20;65.00;;;;;;5060804;28;20339;-68
2023/04/14 10:00:21;;;;;;;2.22;1.52;;;18.20;65.00;;;;;;5059196;28;20221;-67
2023/04/14 10:03:10;;;;;;;1.98;1.38;;;18.20;65.50;;;;;;5058808;28;20211;-67
2023/04/14 10:05:59;;;;;;;1.85;1.73;;;18.20;65.20;;;;;;5061625;28;20203;-68
2023/04/14 10:08:49;;;;;;;1.50;1.40;;;18.20;65.30;;;;;;5051752;28;20313;-64
2023/04/14 10:11:37;;;;;;;1.95;1.58;;;18.10;65.20;;;;;;5051786;28;20202;-64
2023/04/14 10:14:25;;;;;;;1.83;1.42;;;18.10;65.40;;;;;;5051035;28;20721;-63
2023/04/14 10:17:13;;;;;;;2.08;1.30;;;18.10;65.00;;;;;;5050393;28;20668;-64
2023/04/14 10:20:04;;;;;;;1.45;1.35;;;18.10;65.00;;;;;;5070258;28;20197;-64
2023/04/14 10:22:55;;;;;;;1.83;1.55;;;18.10;64.90;;;;;;5071889;28;20232;-63
2023/04/14 10:25:43;;;;;;;1.90;1.45;;;18.10;64.90;;;;;;5072077;28;20203;-64
2023/04/14 10:28:33;;;;;;;1.73;1.48;;;18.10;64.90;;;;;;5071370;28;20267;-65
2023/04/14 10:31:25;;;;;;;3.65;1.40;;;18.10;65.00;;;;;;5071251;28;20205;-64
2023/04/14 10:34:15;;;;;;;2.67;1.73;;;18.10;65.40;;;;;;5051573;28;20237;-64
2023/04/14 10:37:14;;;;;;;2.03;1.30;;;18.10;65.70;;;;;;5051325;28;20715;-64
2023/04/14 10:40:05;;;;;;;2.50;1.75;;;18.10;65.70;;;;;;5051198;28;20202;-64
2023/04/14 10:42:56;;;;;;;1.70;1.60;;;18.10;65.90;;;;;;5052024;28;20202;-64
2023/04/14 10:45:55;;;;;;;1.50;1.40;;;18.10;65.80;;;;;;5051872;28;20201;-64
2023/04/14 10:48:48;;;;;;;1.70;1.55;;;18.10;65.90;;;;;;5051974;28;20221;-64
2023/04/14 10:51:37;;;;;;;1.50;1.38;;;18.10;65.90;;;;;;5051452;28;20199;-65
2023/04/14 10:54:26;;;;;;;1.23;1.13;;;18.10;65.90;;;;;;5051585;28;20303;-64
2023/04/14 10:57:14;;;;;;;1.45;1.35;;;18.10;65.70;;;;;;5051240;28;20197;-65
2023/04/14 11:00:22;;;;;;;1.30;1.20;;;18.10;65.70;;;;;;5050996;28;20193;-64
2023/04/14 11:03:16;;;;;;;1.35;1.25;;;18.30;66.20;;;;;;5051648;28;20263;-64
2023/04/14 11:06:05;;;;;;;1.42;1.33;;;18.10;65.70;;;;;;5050901;28;20201;-65
2023/04/14 11:08:55;;;;;;;1.80;1.30;;;18.10;65.70;;;;;;5050953;28;20283;-65
2023/04/14 11:11:44;;;;;;;1.05;0.95;;;18.10;65.90;;;;;;5051712;28;20198;-64
2023/04/14 11:14:34;;;;;;;1.40;1.30;;;18.00;65.60;;;;;;5052090;28;20225;-64
2023/04/14 11:17:23;;;;;;;2.65;1.50;;;18.10;65.90;;;;;;5051334;28;20263;-64
2023/04/14 11:20:15;;;;;;;1.38;1.27;;;18.00;65.70;;;;;;5049879;28;20280;-64
2023/04/14 11:23:03;;;;;;;1.58;1.25;;;18.10;65.90;;;;;;5052973;28;20296;-64
2023/04/14 11:25:52;;;;;;;1.20;1.10;;;18.00;65.20;;;;;;5059906;28;20284;-64
2023/04/14 11:28:43;;;;;;;1.15;1.05;;;18.00;65.80;;;;;;5053910;28;20232;-64
2023/04/14 11:31:31;;;;;;;1.67;1.48;;;18.00;65.50;;;;;;5053721;28;20197;-64
2023/04/14 11:34:24;;;;;;;1.52;1.33;;;18.00;66.10;;;;;;5053855;28;20248;-64
2023/04/14 11:37:12;;;;;;;1.60;1.15;;;18.00;66.20;;;;;;5055391;28;20197;-64
2023/04/14 11:40:00;;;;;;;1.45;1.35;;;18.00;66.40;;;;;;5055302;28;20208;-64
2023/04/14 11:42:52;;;;;;;1.75;1.40;;;18.00;66.30;;;;;;5055217;28;20247;-64
2023/04/14 11:45:45;;;;;;;1.40;1.25;;;18.00;66.40;;;;;;5055621;28;20205;-64
2023/04/14 11:48:33;;;;;;;1.60;1.05;;;17.90;66.30;;;;;;5055186;28;20720;-64
2023/04/14 11:51:21;;;;;;;1.38;1.27;;;17.90;66.40;;;;;;5055130;28;20201;-64
2023/04/14 11:54:12;;;;;;;1.38;1.15;;;17.90;66.40;;;;;;5054384;28;20689;-64
2023/04/14 11:57:00;;;;;;;1.58;1.05;;;17.90;66.50;;;;;;5053808;28;20200;-64
2023/04/14 11:59:48;;;;;;;1.83;1.10;;;17.90;66.50;;;;;;5055381;28;20277;-64
2023/04/14 12:02:38;;;;;;;1.20;1.15;;;17.90;66.30;;;;;;5054284;28;20205;-64
2023/04/14 12:05:29;;;;;;;1.40;1.30;;;17.90;65.60;;;;;;5055497;28;20254;-64
2023/04/14 12:08:18;;;;;;;2.15;1.13;;;17.90;66.30;;;;;;5055403;28;20761;-64
2023/04/14 12:11:13;;;;;;;1.77;1.30;;;17.90;66.40;;;;;;5054191;28;20281;-64
2023/04/14 12:14:02;;;;;;;1.20;1.10;;;17.90;66.30;;;;;;5054979;28;20225;-65
2023/04/14 12:16:50;;;;;;;1.38;1.00;;;17.90;66.40;;;;;;5053425;28;20251;-64
2023/04/14 12:19:39;;;;;;;1.38;1.27;;;17.90;66.50;;;;;;5054747;28;20221;-64
2023/04/14 12:22:29;;;;;;;1.63;1.20;;;17.90;66.40;;;;;;5053709;28;20205;-64
2023/04/14 12:25:17;;;;;;;1.48;1.17;;;17.90;66.60;;;;;;5055020;28;20347;-64
2023/04/14 12:28:06;;;;;;;1.25;1.15;;;17.80;66.60;;;;;;5054730;28;20292;-64
2023/04/14 12:30:58;;;;;;;1.30;1.20;;;17.80;66.60;;;;;;5054394;28;20204;-64
2023/04/14 12:33:46;;;;;;;1.33;1.23;;;17.80;66.50;;;;;;5054271;28;20225;-63
2023/04/14 12:36:39;;;;;;;1.27;1.17;;;17.80;66.70;;;;;;5054631;28;20280;-64
2023/04/14 12:39:50;;;;;;;1.00;1.00;;;17.80;66.70;;;;;;5055273;28;20302;-65
2023/04/14 12:42:46;;;;;;;1.27;1.13;;;17.80;66.90;;;;;;5057070;28;20203;-64
2023/04/14 12:45:41;;;;;;;1.17;1.08;;;17.80;67.00;;;;;;5062179;28;20284;-64
2023/04/14 12:48:43;;;;;;;1.05;1.00;;;17.80;66.90;;;;;;5075876;28;20219;-64
2023/04/14 12:51:40;;;;;;;1.30;1.20;;;17.80;67.00;;;;;;5077204;28;20196;-64
2023/04/14 12:54:46;;;;;;;1.40;1.30;;;17.80;67.00;;;;;;5075173;28;20224;-64
2023/04/14 12:57:35;;;;;;;0.90;0.90;;;17.70;66.80;;;;;;5074103;28;20219;-64
2023/04/14 13:00:25;;;;;;;1.27;1.10;;;17.70;67.00;;;;;;5072714;28;20284;-64
2023/04/14 13:03:14;;;;;;;1.40;1.17;;;17.70;67.30;;;;;;5072718;28;20201;-64
2023/04/14 13:06:02;;;;;;;1.10;1.00;;;17.80;67.00;;;;;;5073007;28;20193;-64
2023/04/14 13:08:53;;;;;;;1.33;1.23;;;17.80;67.00;;;;;;5073372;28;20298;-64
2023/04/14 13:11:43;;;;;;;1.40;1.30;;;17.80;66.90;;;;;;5072683;28;20204;-63
2023/04/14 13:14:31;;;;;;;1.08;1.08;;;17.90;66.90;;;;;;5073389;28;20476;-64
2023/04/14 13:17:19;;;;;;;2.05;1.13;;;17.90;66.80;;;;;;5073256;28;20478;-64
2023/04/14 13:20:09;;;;;;;1.85;0.90;;;18.00;66.70;;;;;;5072874;28;20307;-64
2023/04/14 13:22:57;;;;;;;1.30;1.20;;;18.00;66.70;;;;;;5072641;28;20283;-64
2023/04/14 13:25:46;;;;;;;1.10;0.93;;;18.00;66.60;;;;;;5074135;28;20633;-64
2023/04/14 13:28:35;;;;;;;2.75;1.30;;;18.00;66.60;;;;;;5078897;28;20216;-64
2023/04/14 13:31:23;;;;;;;1.00;1.00;;;18.00;66.60;;;;;;5081951;28;20196;-64
2023/04/14 13:34:11;;;;;;;1.38;1.27;;;18.00;66.50;;;;;;5076877;28;20255;-65
2023/04/14 13:36:59;;;;;;;5.45;1.38;;;17.90;66.50;;;;;;5085142;28;20221;-64
2023/04/14 13:39:48;;;;;;;1.25;1.15;;;17.90;66.50;;;;;;5089549;28;20204;-63
2023/04/14 13:42:37;;;;;;;1.52;1.42;;;18.00;66.60;;;;;;5090058;28;20196;-64
2023/04/14 13:45:27;;;;;;;1.30;1.05;;;18.10;66.60;;;;;;5083602;28;20217;-64
2023/04/14 13:48:15;;;;;;;1.20;1.00;;;18.00;66.50;;;;;;5068160;28;20592;-64
2023/04/14 13:51:05;;;;;;;1.25;0.95;;;18.10;66.60;;;;;;5067829;28;20239;-64
2023/04/14 13:53:55;;;;;;;0.80;0.80;;;18.10;66.60;;;;;;5067507;28;20300;-64
2023/04/14 13:56:43;;;;;;;1.35;1.10;;;18.10;66.60;;;;;;5061503;28;20275;-64
2023/04/14 13:59:32;;;;;;;0.80;0.80;;;18.10;66.30;;;;;;5061848;28;20277;-64
2023/04/14 14:02:22;;;;;;;0.90;0.80;;;18.10;66.30;;;;;;5059511;28;20209;-64
2023/04/14 14:05:11;;;;;;;0.80;0.80;;;18.10;66.40;;;;;;5059234;28;20240;-64
2023/04/14 14:07:59;;;;;;;2.60;1.10;;;18.10;66.30;;;;;;5059881;28;20276;-64
2023/04/14 14:10:47;;;;;;;0.90;0.90;;;18.00;66.10;;;;;;5054699;28;20197;-64
2023/04/14 14:13:37;;;;;;;1.13;1.05;;;18.00;66.30;;;;;;5051920;28;20318;-64
2023/04/14 14:16:27;;;;;;;1.27;0.82;;;18.00;66.60;;;;;;5052228;28;20203;-64
2023/04/14 14:19:18;;;;;;;1.27;0.95;;;18.00;66.80;;;;;;5052510;28;20207;-64
2023/04/14 14:22:06;;;;;;;1.13;0.90;;;17.90;66.60;;;;;;5052645;28;20236;-64
2023/04/14 14:24:54;;;;;;;0.80;0.80;;;17.80;66.80;;;;;;5052010;28;20268;-64
2023/04/14 14:28:02;;;;;;;1.10;1.00;;;17.90;67.00;;;;;;5051116;28;20198;-64
2023/04/14 14:30:50;;;;;;;0.90;0.90;;;17.80;66.90;;;;;;5052026;28;20278;-64
2023/04/14 14:33:40;;;;;;;1.33;1.23;;;17.80;67.10;;;;;;5051287;28;20225;-64
2023/04/14 14:36:29;;;;;;;1.42;0.93;;;17.80;67.10;;;;;;5052650;28;20198;-64
2023/04/14 14:39:17;;;;;;;0.90;0.90;;;17.80;67.10;;;;;;5052064;28;20662;-64
2023/04/14 14:42:06;;;;;;;1.08;0.85;;;17.80;67.10;;;;;;5052914;28;20205;-64
2023/04/14 14:44:54;;;;;;;1.17;1.00;;;17.80;67.20;;;;;;5051961;28;20729;-64
2023/04/14 14:47:42;;;;;;;1.10;1.00;;;17.80;67.10;;;;;;5051033;28;20208;-63